気象予報士の航空気象 成田空港 大荒れ

*All archives   *Admin

スポンサーサイト

上記の広告は1ヶ月以上更新のないブログに表示されています。
新しい記事を書く事で広告が消せます。
--:--  |  スポンサー広告  |  EDIT  |  Top↑

2015.09.06 (Sun)

成田空港 大荒れ

昼前から関東のところどころで積乱雲が急発達して、大雨を降らせています。

また、ニュースが騒ぐのだろう。

RJAA 060621Z 36010KT 3000 R34L/1300VP1800D R34R/P1800N +SHRA BR FEW010 BKN020 FEW025CB 23/22 Q1006 RMK 1CU010 7CU020 1CB025 A2972 CB 30KM S MOV NE
スポンサーサイト
15:25  |  時事  |  TB(0)  |  CM(0)  |  EDIT  |  Top↑

コメントを投稿する


 管理者だけに表示  (非公開コメント投稿可能)

▲PageTop

この記事のトラックバックURL

→http://weathereucalyptus.blog115.fc2.com/tb.php/686-3da7b6df
この記事にトラックバックする(FC2ブログユーザー)

この記事へのトラックバック

▲PageTop

 | BLOGTOP | 
上記広告は1ヶ月以上更新のないブログに表示されています。新しい記事を書くことで広告を消せます。